Weather Underground® Station Historical Data


Station Historical Data For Bruceton, TN. (K3JAE's Weather Station - KTNBRUCE2)
 
Daily Summary for:  September 20, 2017 Units:  English    Metric   Both
« Previous Day
Next Day »
Daily Weekly Monthly Yearly Custom
  Current: High: Low: Average:
Temperature: 89.3 °F 89.3 °F 68.7 °F 75.8 °F
Dew Point: 73.1 °F 75.2 °F 64.0 °F 69.2 °F
Humidity: 59% 88% 59% 81%
Wind Speed: 3.5mph 11.5mph 0.0mph 2.2mph
Wind Gust: 3.5mph 11.5mph - -
WindWSW - - SW
Pressure: 29.96 in 30.02 in 29.93 in -
Precipitation: 0.00 in      
Historical Graphs
 
 
Tabular Data for:  September 20, 2017
Time Temperature Dew Point Pressure Wind Wind Speed Wind Gust Humidity Rainfall Rate (Hourly) solar Conditions
00:02 73.0 °F 68.9 °F 29.93 in SW 1.2 mph 1.2 mph 87% 0.00 in 0.0 W/m2 CLR
00:07 73.0 °F 68.9 °F 29.93 in SW 1.2 mph   87% 0.00 in 0.0 W/m2 CLR
00:12 72.9 °F 68.8 °F 29.93 in Calm     87% 0.00 in 0.0 W/m2 CLR
00:17 72.8 °F 68.7 °F 29.93 in SW 1.2 mph 1.2 mph 87% 0.00 in 0.0 W/m2 CLR
00:22 72.7 °F 68.6 °F 29.93 in SW 1.2 mph 1.2 mph 87% 0.00 in 0.0 W/m2 CLR
00:27 72.7 °F 68.6 °F 29.93 in Calm     87% 0.00 in 0.0 W/m2 CLR
00:32 72.6 °F 68.5 °F 29.93 in SW 2.3 mph 2.3 mph 87% 0.00 in 0.0 W/m2 CLR
00:37 72.6 °F 68.5 °F 29.94 in SW 1.2 mph 1.2 mph 87% 0.00 in 0.0 W/m2 CLR
00:42 72.6 °F 68.5 °F 29.94 in Calm     87% 0.00 in 0.0 W/m2 CLR
00:47 72.6 °F 68.5 °F 29.94 in SW 1.0 mph   87% 0.00 in 0.0 W/m2 CLR
00:52 72.5 °F 68.4 °F 29.94 in SW 2.0 mph 2.0 mph 87% 0.00 in 0.0 W/m2 CLR
00:57 72.4 °F 68.3 °F 29.94 in SW 1.2 mph 1.2 mph 87% 0.00 in 0.0 W/m2 CLR
01:02 72.4 °F 68.3 °F 29.94 in SW 2.3 mph 2.3 mph 87% 0.00 in 0.0 W/m2 CLR
01:07 72.3 °F 68.2 °F 29.94 in SW 2.0 mph   87% 0.00 in 0.0 W/m2 CLR
01:12 72.3 °F 67.9 °F 29.94 in SW 1.2 mph   86% 0.00 in 0.0 W/m2 CLR
01:17 72.3 °F 68.2 °F 29.94 in Calm     87% 0.00 in 0.0 W/m2 CLR
01:18 72.3 °F 68.2 °F 29.94 in SW 1.2 mph 1.2 mph 87% 0.00 in 0.0 W/m2 CLR
01:23 72.2 °F 68.1 °F 29.94 in SW 2.3 mph 2.3 mph 87% 0.00 in 0.0 W/m2 CLR
01:28 72.2 °F 68.1 °F 29.94 in SSW 3.5 mph 3.5 mph 87% 0.00 in 0.0 W/m2 CLR
01:33 72.1 °F 67.7 °F 29.94 in SSW 2.3 mph 2.3 mph 86% 0.00 in 0.0 W/m2 CLR
01:38 72.1 °F 67.7 °F 29.94 in SSW 1.2 mph 1.2 mph 86% 0.00 in 0.0 W/m2 CLR
01:43 72.1 °F 67.7 °F 29.94 in SSW 2.3 mph 2.3 mph 86% 0.00 in 0.0 W/m2 CLR
01:48 72.0 °F 67.6 °F 29.94 in SSW 1.2 mph 1.2 mph 86% 0.00 in 0.0 W/m2 CLR
01:53 72.0 °F 67.6 °F 29.93 in SSW 2.3 mph 2.3 mph 86% 0.00 in 0.0 W/m2 CLR
01:58 71.9 °F 67.5 °F 29.94 in Calm     86% 0.00 in 0.0 W/m2 CLR
02:03 71.9 °F 67.5 °F 29.94 in SSW 1.2 mph 1.2 mph 86% 0.00 in 0.0 W/m2 CLR
02:08 71.9 °F 67.5 °F 29.94 in Calm     86% 0.00 in 0.0 W/m2 CLR
02:13 71.8 °F 67.4 °F 29.94 in Calm     86% 0.00 in 0.0 W/m2 CLR
02:18 71.8 °F 67.4 °F 29.93 in Calm     86% 0.00 in 0.0 W/m2 CLR
02:23 71.7 °F 67.3 °F 29.93 in SSW 1.2 mph   86% 0.00 in 0.0 W/m2 CLR
02:28 71.6 °F 67.2 °F 29.93 in Calm     86% 0.00 in 0.0 W/m2 CLR
02:33 71.6 °F 67.2 °F 29.94 in Calm     86% 0.00 in 0.0 W/m2 CLR
02:38 71.5 °F 67.1 °F 29.94 in Calm     86% 0.00 in 0.0 W/m2 CLR
02:43 71.5 °F 67.1 °F 29.94 in SSW 1.2 mph   86% 0.00 in 0.0 W/m2 CLR
02:48 71.4 °F 67.0 °F 29.93 in Calm     86% 0.00 in 0.0 W/m2 CLR
02:53 71.4 °F 67.0 °F 29.94 in Calm     86% 0.00 in 0.0 W/m2 CLR
02:58 71.4 °F 67.0 °F 29.94 in Calm     86% 0.00 in 0.0 W/m2 CLR
03:03 71.3 °F 66.9 °F 29.94 in Calm     86% 0.00 in 0.0 W/m2 CLR
03:08 71.2 °F 67.1 °F 29.94 in Calm     87% 0.00 in 0.0 W/m2 CLR
03:13 71.1 °F 66.7 °F 29.94 in Calm     86% 0.00 in 0.0 W/m2 CLR
03:18 71.0 °F 66.6 °F 29.94 in Calm     86% 0.00 in 0.0 W/m2 CLR
03:23 70.9 °F 66.5 °F 29.94 in Calm     86% 0.00 in 0.0 W/m2 CLR
03:28 70.8 °F 66.4 °F 29.93 in Calm     86% 0.00 in 0.0 W/m2 CLR
03:33 70.7 °F 66.6 °F 29.93 in Calm     87% 0.00 in 0.0 W/m2 CLR
03:39 70.5 °F 66.4 °F 29.94 in Calm     87% 0.00 in 0.0 W/m2 CLR
03:44 70.4 °F 66.3 °F 29.94 in Calm     87% 0.00 in 0.0 W/m2 CLR
03:49 70.4 °F 66.0 °F 29.94 in Calm   0.1 mph 86% 0.00 in 0.0 W/m2 CLR
03:54 70.3 °F 65.9 °F 29.94 in SSW 1.2 mph   86% 0.00 in 0.0 W/m2 CLR
03:59 70.2 °F 65.8 °F 29.94 in SSW 1.0 mph   86% 0.00 in 0.0 W/m2 CLR
04:04 70.2 °F 65.8 °F 29.94 in SSW 2.3 mph   86% 0.00 in 0.0 W/m2 CLR
04:09 70.1 °F 65.7 °F 29.94 in SSW 1.2 mph 1.2 mph 86% 0.00 in 0.0 W/m2 CLR
04:14 70.1 °F 65.7 °F 29.94 in Calm     86% 0.00 in 0.0 W/m2 CLR
04:19 70.0 °F 65.6 °F 29.94 in Calm     86% 0.00 in 0.0 W/m2 CLR
04:24 70.0 °F 65.6 °F 29.94 in Calm     86% 0.00 in 0.0 W/m2 CLR
04:29 70.0 °F 65.6 °F 29.94 in Calm     86% 0.00 in 0.0 W/m2 CLR
04:34 69.9 °F 65.5 °F 29.94 in SSW 1.2 mph 1.2 mph 86% 0.00 in 0.0 W/m2 CLR
04:39 69.9 °F 65.5 °F 29.94 in SSW 1.2 mph 1.2 mph 86% 0.00 in 0.0 W/m2 CLR
04:44 69.8 °F 65.4 °F 29.94 in SSW 1.2 mph 1.2 mph 86% 0.00 in 0.0 W/m2 CLR
04:49 69.8 °F 65.4 °F 29.94 in SSW 1.2 mph 1.2 mph 86% 0.00 in 0.0 W/m2 CLR
04:54 69.8 °F 65.8 °F 29.94 in Calm     87% 0.00 in 0.0 W/m2 CLR
04:59 69.7 °F 65.7 °F 29.94 in Calm     87% 0.00 in 0.0 W/m2 CLR
05:04 69.6 °F 65.6 °F 29.94 in SSW 2.3 mph 2.3 mph 87% 0.00 in 0.0 W/m2 CLR
05:09 69.6 °F 65.6 °F 29.94 in Calm     87% 0.00 in 0.0 W/m2 CLR
05:14 69.6 °F 65.6 °F 29.94 in Calm     87% 0.00 in 0.0 W/m2 CLR
05:19 69.5 °F 65.5 °F 29.94 in Calm     87% 0.00 in 0.0 W/m2 CLR
05:24 69.5 °F 65.5 °F 29.95 in Calm     87% 0.00 in 0.0 W/m2 CLR
05:29 69.4 °F 65.4 °F 29.95 in Calm     87% 0.00 in 0.0 W/m2 CLR
05:34 69.4 °F 65.4 °F 29.95 in Calm     87% 0.00 in 0.0 W/m2 CLR
05:39 69.3 °F 65.3 °F 29.95 in Calm     87% 0.00 in 0.0 W/m2 CLR
05:44 69.2 °F 65.2 °F 29.95 in Calm     87% 0.00 in 0.0 W/m2 CLR
05:49 69.2 °F 65.2 °F 29.95 in Calm     87% 0.00 in 0.0 W/m2 CLR
05:54 69.1 °F 64.7 °F 29.96 in Calm     86% 0.00 in 0.0 W/m2 CLR
05:59 69.0 °F 64.6 °F 29.96 in Calm     86% 0.00 in 0.0 W/m2 CLR
06:04 69.0 °F 64.6 °F 29.96 in Calm     86% 0.00 in 0.0 W/m2 CLR
06:09 68.9 °F 64.5 °F 29.96 in SSW 1.2 mph 1.2 mph 86% 0.00 in 0.0 W/m2 CLR
06:14 68.9 °F 64.5 °F 29.96 in Calm     86% 0.00 in 0.0 W/m2 CLR
06:19 68.9 °F 64.5 °F 29.97 in SSW 1.2 mph 1.2 mph 86% 0.00 in 0.0 W/m2 CLR
06:24 68.9 °F 64.5 °F 29.97 in Calm     86% 0.00 in 0.0 W/m2 CLR
06:29 68.8 °F 64.4 °F 29.97 in Calm     86% 0.00 in 0.0 W/m2 CLR
06:34 68.8 °F 64.4 °F 29.97 in SSW 1.2 mph   86% 0.00 in 0.0 W/m2 CLR
06:39 68.8 °F 64.4 °F 29.97 in Calm     86% 0.00 in 0.0 W/m2 CLR
06:44 68.7 °F 64.3 °F 29.98 in Calm     86% 0.00 in 0.0 W/m2 CLR
06:49 68.7 °F 64.3 °F 29.98 in Calm     86% 0.00 in 5.0 W/m2 CLR
06:54 68.7 °F 64.3 °F 29.98 in Calm     86% 0.00 in 7.0 W/m2 CLR
06:59 68.7 °F 64.3 °F 29.98 in Calm     86% 0.00 in 11.0 W/m2 CLR
07:04 68.7 °F 64.3 °F 29.98 in Calm     86% 0.00 in 19.0 W/m2 CLR
07:09 68.7 °F 64.3 °F 29.99 in Calm     86% 0.00 in 25.0 W/m2 CLR
07:14 68.7 °F 64.3 °F 29.99 in Calm     86% 0.00 in 26.0 W/m2 CLR
07:19 68.7 °F 64.0 °F 29.99 in Calm     85% 0.00 in 25.0 W/m2 CLR
07:24 68.8 °F 64.4 °F 29.99 in SSW 1.2 mph   86% 0.00 in 23.0 W/m2 CLR
07:29 68.9 °F 64.5 °F 30.00 in SSW 1.2 mph 1.2 mph 86% 0.00 in 26.0 W/m2 CLR
07:34 69.0 °F 64.6 °F 30.00 in Calm     86% 0.00 in 30.0 W/m2 CLR
07:39 69.1 °F 64.7 °F 30.00 in Calm     86% 0.00 in 28.0 W/m2 CLR
07:44 69.2 °F 64.8 °F 30.00 in SSW 2.3 mph 2.3 mph 86% 0.00 in 32.0 W/m2 CLR
07:49 69.4 °F 65.0 °F 30.00 in SSW 2.3 mph 2.3 mph 86% 0.00 in 39.0 W/m2 CLR
07:54 69.6 °F 65.2 °F 30.00 in SSW 1.2 mph 1.2 mph 86% 0.00 in 49.0 W/m2 CLR
07:59 69.9 °F 65.9 °F 30.00 in SSW 2.3 mph 2.3 mph 87% 0.00 in 60.0 W/m2 CLR
08:04 70.2 °F 66.1 °F 30.00 in SSW 2.3 mph 2.3 mph 87% 0.00 in 83.0 W/m2 FEW
08:09 70.5 °F 66.4 °F 30.01 in SSW 3.5 mph 3.5 mph 87% 0.00 in 69.0 W/m2 FEW
08:14 70.9 °F 67.2 °F 30.01 in SW 4.6 mph 4.6 mph 88% 0.00 in 47.0 W/m2 FEW
08:19 71.2 °F 67.5 °F 30.01 in SW 3.5 mph 3.5 mph 88% 0.00 in 35.0 W/m2 FEW
08:24 71.6 °F 67.9 °F 30.01 in SW 3.5 mph 3.5 mph 88% 0.00 in 47.0 W/m2 FEW
08:29 71.8 °F 68.1 °F 30.01 in WSW 4.6 mph 4.6 mph 88% 0.00 in 51.0 W/m2 FEW
08:34 72.2 °F 68.4 °F 30.01 in WSW 3.5 mph 3.5 mph 88% 0.00 in 56.0 W/m2 FEW
08:39 72.5 °F 68.7 °F 30.01 in SSE 4.6 mph 4.6 mph 88% 0.00 in 62.0 W/m2 FEW
08:44 72.8 °F 69.0 °F 30.01 in WSW 2.3 mph 2.3 mph 88% 0.00 in 67.0 W/m2 FEW
08:49 73.2 °F 69.4 °F 30.02 in South 2.3 mph 2.3 mph 88% 0.00 in 70.0 W/m2 FEW
08:54 73.5 °F 69.7 °F 30.01 in SSW 2.3 mph 2.3 mph 88% 0.00 in 86.0 W/m2 FEW
08:59 73.9 °F 70.1 °F 30.02 in SSW 2.3 mph 2.3 mph 88% 0.00 in 107.0 W/m2 FEW
09:04 74.2 °F 70.1 °F 30.02 in SSW 3.5 mph 3.5 mph 87% 0.00 in 109.0 W/m2 FEW
09:09 74.6 °F 70.5 °F 30.02 in WSW 3.0 mph 3.0 mph 87% 0.00 in 135.0 W/m2 FEW
09:14 75.0 °F 70.9 °F 30.02 in WSW 4.0 mph 4.0 mph 87% 0.00 in 211.0 W/m2 FEW
09:24 75.9 °F 71.1 °F 30.02 in West 3.5 mph 3.5 mph 85% 0.00 in 171.0 W/m2 FEW
09:29 76.1 °F 71.3 °F 30.02 in SSE 4.6 mph 4.6 mph 85% 0.00 in 153.0 W/m2 FEW
09:34 76.1 °F 71.3 °F 30.02 in SW 2.3 mph 2.3 mph 85% 0.00 in 137.0 W/m2 FEW
09:39 76.1 °F 71.3 °F 30.02 in SW 1.2 mph 1.2 mph 85% 0.00 in 139.0 W/m2 FEW
09:44 76.1 °F 71.3 °F 30.02 in West 4.6 mph 4.6 mph 85% 0.00 in 93.0 W/m2 FEW
09:49 76.3 °F 71.5 °F 30.02 in West 3.5 mph 3.5 mph 85% 0.00 in 118.0 W/m2 FEW
09:54 76.5 °F 71.7 °F 30.02 in WSW 3.5 mph 3.5 mph 85% 0.00 in 482.0 W/m2 FEW
10:04 77.4 °F 72.2 °F 30.02 in SW 3.5 mph 3.5 mph 84% 0.00 in 506.0 W/m2 CLR
10:09 77.7 °F 72.1 °F 30.02 in SSW 3.5 mph 3.5 mph 83% 0.00 in 529.0 W/m2 CLR
10:14 78.0 °F 72.4 °F 30.02 in WSW 4.6 mph 4.6 mph 83% 0.00 in 545.0 W/m2 CLR
10:19 78.3 °F 72.7 °F 30.02 in South 3.5 mph 3.5 mph 83% 0.00 in 548.0 W/m2 CLR
10:24 78.4 °F 72.8 °F 30.02 in SSW 3.5 mph 3.5 mph 83% 0.00 in 571.0 W/m2 CLR
10:29 78.9 °F 73.3 °F 30.02 in WSW 8.1 mph 8.1 mph 83% 0.00 in 585.0 W/m2 CLR
10:34 79.3 °F 73.3 °F 30.02 in SW 3.5 mph 3.5 mph 82% 0.00 in 594.0 W/m2 CLR
10:39 79.5 °F 73.5 °F 30.02 in SW 5.8 mph 5.8 mph 82% 0.00 in 612.0 W/m2 CLR
10:44 79.8 °F 73.8 °F 30.02 in SSW 2.3 mph 2.3 mph 82% 0.00 in 615.0 W/m2 CLR
10:49 80.3 °F 73.9 °F 30.02 in SW 2.3 mph 2.3 mph 81% 0.00 in 633.0 W/m2 CLR
10:54 80.7 °F 74.0 °F 30.02 in SSW 2.3 mph 2.3 mph 80% 0.00 in 647.0 W/m2 CLR
10:59 81.1 °F 74.0 °F 30.02 in SW 4.6 mph 4.6 mph 79% 0.00 in 657.0 W/m2 CLR
11:09 81.5 °F 74.4 °F 30.02 in South 2.3 mph 2.3 mph 79% 0.00 in 392.0 W/m2 CLR
11:14 81.7 °F 74.2 °F 30.02 in Calm     78% 0.00 in 543.0 W/m2 CLR
11:19 82.4 °F 75.2 °F 30.02 in SSW 3.5 mph 3.5 mph 79% 0.00 in 684.0 W/m2 CLR
11:24 83.0 °F 75.0 °F 30.02 in WSW 4.0 mph 4.0 mph 77% 0.00 in 701.0 W/m2 CLR
11:29 83.4 °F 73.8 °F 30.02 in WSW 6.9 mph 6.9 mph 73% 0.00 in 715.0 W/m2 CLR
11:34 83.4 °F 73.4 °F 30.01 in WSW 3.5 mph 3.5 mph 72% 0.00 in 712.0 W/m2 SCT
11:39 83.5 °F 73.9 °F 30.01 in SSW 3.5 mph 3.5 mph 73% 0.00 in 729.0 W/m2 SCT
11:44 84.0 °F 74.8 °F 30.01 in WSW 4.0 mph 4.0 mph 74% 0.00 in 759.0 W/m2 SCT
11:49 84.5 °F 74.5 °F 30.01 in WSW 3.5 mph 3.5 mph 72% 0.00 in 747.0 W/m2 SCT
11:54 84.6 °F 74.2 °F 30.01 in WSW 2.3 mph 2.3 mph 71% 0.00 in 798.0 W/m2 SCT
11:59 85.2 °F 74.3 °F 30.01 in SSE 4.0 mph 4.0 mph 70% 0.00 in 844.0 W/m2 SCT
12:04 85.3 °F 74.0 °F 30.01 in SW 3.0 mph 3.0 mph 69% 0.00 in 221.0 W/m2 SCT
12:09 85.5 °F 74.2 °F 30.00 in WSW 3.5 mph 3.5 mph 69% 0.00 in 784.0 W/m2 SCT
12:14 85.3 °F 73.1 °F 30.00 in WSW 3.5 mph 3.5 mph 67% 0.00 in 272.0 W/m2 SCT
12:19 85.2 °F 73.9 °F 30.00 in West 1.2 mph 1.2 mph 69% 0.00 in 877.0 W/m2 SCT
12:24 85.7 °F 74.8 °F 30.00 in South 3.5 mph 3.5 mph 70% 0.00 in 786.0 W/m2 SCT
12:29 86.2 °F 74.4 °F 30.00 in SW 3.5 mph 3.5 mph 68% 0.00 in 220.0 W/m2 SCT
12:34 86.1 °F 74.7 °F 30.00 in West 5.8 mph 5.8 mph 69% 0.00 in 809.0 W/m2 SCT
12:39 85.4 °F 74.1 °F 30.00 in SW 2.3 mph 2.3 mph 69% 0.00 in 132.0 W/m2 SCT
12:44 85.1 °F 73.8 °F 30.00 in WSW 3.5 mph 3.5 mph 69% 0.00 in 860.0 W/m2 SCT
12:49 85.5 °F 74.2 °F 29.99 in WSW 3.5 mph 3.5 mph 69% 0.00 in 831.0 W/m2 SCT
12:54 85.8 °F 74.0 °F 30.00 in West 5.8 mph 5.8 mph 68% 0.00 in 190.0 W/m2 SCT
12:59 85.6 °F 73.8 °F 29.99 in WSW 3.5 mph 3.5 mph 68% 0.00 in 144.0 W/m2 SCT
13:00 85.5 °F 73.7 °F 29.99 in WSW 5.0 mph 5.0 mph 68% 0.00 in 202.0 W/m2 SCT
13:05 85.2 °F 74.3 °F 29.99 in WSW 3.5 mph 3.5 mph 70% 0.00 in 352.0 W/m2 BKN
13:06 85.2 °F 73.4 °F 29.99 in WSW 3.5 mph 3.5 mph 68% 0.00 in 181.0 W/m2 BKN
13:11 85.4 °F 73.2 °F 29.99 in West 4.0 mph 4.0 mph 67% 0.00 in 230.0 W/m2 BKN
13:16 85.4 °F 73.6 °F 29.99 in West 6.9 mph 6.9 mph 68% 0.00 in 200.0 W/m2 BKN
13:21 85.3 °F 73.5 °F 29.99 in West 6.0 mph 6.0 mph 68% 0.00 in 188.0 W/m2 BKN
13:26 85.6 °F 73.4 °F 29.99 in WSW 4.0 mph 4.0 mph 67% 0.00 in 824.0 W/m2 BKN
13:31 86.3 °F 73.1 °F 29.98 in SW 3.5 mph 3.5 mph 65% 0.00 in 814.0 W/m2 BKN
13:36 87.0 °F 72.4 °F 29.98 in WSW 11.5 mph 11.5 mph 62% 0.00 in 889.0 W/m2 BKN
13:41 87.6 °F 73.0 °F 29.98 in West 5.8 mph 5.8 mph 62% 0.00 in 830.0 W/m2 BKN
13:46 87.3 °F 73.2 °F 29.98 in West 8.1 mph 8.1 mph 63% 0.00 in 334.0 W/m2 BKN
13:51 87.5 °F 73.8 °F 29.98 in SW 3.5 mph 3.5 mph 64% 0.00 in 805.0 W/m2 BKN
13:56 87.6 °F 73.4 °F 29.97 in SW 4.6 mph 4.6 mph 63% 0.00 in 775.0 W/m2 BKN
14:01 88.2 °F 74.0 °F 29.97 in WSW 4.0 mph 4.0 mph 63% 0.00 in 770.0 W/m2 FEW
14:06 88.6 °F 73.9 °F 29.97 in WSW 4.6 mph 4.6 mph 62% 0.00 in 796.0 W/m2 FEW
14:11 88.7 °F 73.5 °F 29.97 in South 6.9 mph 6.9 mph 61% 0.00 in 777.0 W/m2 FEW
14:16 88.2 °F 72.6 °F 29.97 in WSW 9.2 mph 9.2 mph 60% 0.00 in 749.0 W/m2 FEW
14:21 87.8 °F 73.2 °F 29.97 in WSW 5.8 mph 5.8 mph 62% 0.00 in 107.0 W/m2 SCT
14:26 87.5 °F 73.8 °F 29.97 in WSW 3.5 mph 3.5 mph 64% 0.00 in 772.0 W/m2 SCT
14:31 88.1 °F 73.0 °F 29.96 in WSW 3.5 mph 3.5 mph 61% 0.00 in 775.0 W/m2 SCT
14:36 88.4 °F 73.7 °F 29.96 in West 7.0 mph 7.0 mph 62% 0.00 in 752.0 W/m2 SCT
14:41 88.6 °F 72.9 °F 29.96 in West 4.0 mph 4.0 mph 60% 0.00 in 726.0 W/m2 SCT
14:46 88.4 °F 72.2 °F 29.96 in SW 5.8 mph 5.8 mph 59% 0.00 in 694.0 W/m2 SCT
14:47 88.4 °F 73.7 °F 29.96 in SW 3.5 mph 3.5 mph 62% 0.00 in 693.0 W/m2 SCT
14:52 88.7 °F 73.0 °F 29.96 in WSW 3.5 mph 3.5 mph 60% 0.00 in 682.0 W/m2 SCT
14:54 88.8 °F 73.1 °F 29.96 in WSW 3.5 mph 3.5 mph 60% 0.00 in 693.0 W/m2 SCT
14:59 89.3 °F 73.1 °F 29.96 in WSW 3.5 mph 3.5 mph 59% 0.00 in 707.0 W/m2 SCT
Bruceton, TN. NWS Weather Forecast
Compliments of:  Weather Underground - 4.75 mb

Interesting Weather Facts
WIND
Is Chicago really "The Windy City?" Of the 262 major weather reporting stations in the United States, 27% or 72 stations average higher annual wind speeds than Chicago, which averages 10.3 mph. For example, New York City's annual wind speed is 12.2 mph.